sensor_id;sensor_type;location;lat;lon;timestamp;P1;durP1;ratioP1;P2;durP2;ratioP2
31808;SDS011;18379;48.208;-1.518;2023-09-07T00:02:17;62.55;;;56.08;;
31808;SDS011;18379;48.208;-1.518;2023-09-07T00:07:18;63.67;;;57.33;;
31808;SDS011;18379;48.208;-1.518;2023-09-07T00:12:19;61.80;;;55.83;;
31808;SDS011;18379;48.208;-1.518;2023-09-07T00:17:20;61.92;;;55.90;;
31808;SDS011;18379;48.208;-1.518;2023-09-07T00:22:21;61.78;;;55.67;;
31808;SDS011;18379;48.208;-1.518;2023-09-07T00:27:22;63.42;;;56.83;;
31808;SDS011;18379;48.208;-1.518;2023-09-07T00:32:23;63.88;;;56.97;;
31808;SDS011;18379;48.208;-1.518;2023-09-07T00:37:23;62.10;;;55.50;;
31808;SDS011;18379;48.208;-1.518;2023-09-07T00:42:24;61.95;;;55.63;;
31808;SDS011;18379;48.208;-1.518;2023-09-07T00:47:25;62.00;;;55.50;;
31808;SDS011;18379;48.208;-1.518;2023-09-07T00:52:26;61.50;;;55.65;;
31808;SDS011;18379;48.208;-1.518;2023-09-07T00:57:27;62.45;;;56.63;;
31808;SDS011;18379;48.208;-1.518;2023-09-07T01:02:28;61.88;;;55.58;;
31808;SDS011;18379;48.208;-1.518;2023-09-07T01:07:37;61.77;;;56.13;;
31808;SDS011;18379;48.208;-1.518;2023-09-07T01:12:43;62.45;;;56.00;;
31808;SDS011;18379;48.208;-1.518;2023-09-07T01:17:45;65.10;;;58.33;;
31808;SDS011;18379;48.208;-1.518;2023-09-07T01:22:46;61.80;;;55.80;;
31808;SDS011;18379;48.208;-1.518;2023-09-07T01:27:47;62.43;;;56.20;;
31808;SDS011;18379;48.208;-1.518;2023-09-07T01:32:49;62.37;;;56.17;;
31808;SDS011;18379;48.208;-1.518;2023-09-07T01:37:50;63.20;;;56.50;;
31808;SDS011;18379;48.208;-1.518;2023-09-07T01:42:51;63.07;;;56.63;;
31808;SDS011;18379;48.208;-1.518;2023-09-07T01:47:51;61.40;;;55.60;;
31808;SDS011;18379;48.208;-1.518;2023-09-07T01:52:52;63.77;;;57.00;;
31808;SDS011;18379;48.208;-1.518;2023-09-07T01:57:53;62.83;;;56.03;;
31808;SDS011;18379;48.208;-1.518;2023-09-07T02:02:53;63.97;;;57.77;;
31808;SDS011;18379;48.208;-1.518;2023-09-07T02:07:54;63.47;;;57.30;;
31808;SDS011;18379;48.208;-1.518;2023-09-07T02:12:55;65.37;;;56.83;;
31808;SDS011;18379;48.208;-1.518;2023-09-07T02:17:58;61.63;;;55.87;;
31808;SDS011;18379;48.208;-1.518;2023-09-07T02:22:59;64.00;;;57.27;;
31808;SDS011;18379;48.208;-1.518;2023-09-07T02:28:00;62.13;;;56.20;;
31808;SDS011;18379;48.208;-1.518;2023-09-07T02:33:01;63.20;;;57.00;;
31808;SDS011;18379;48.208;-1.518;2023-09-07T02:38:01;62.30;;;55.80;;
31808;SDS011;18379;48.208;-1.518;2023-09-07T02:43:02;62.83;;;55.90;;
31808;SDS011;18379;48.208;-1.518;2023-09-07T02:48:03;62.97;;;56.57;;
31808;SDS011;18379;48.208;-1.518;2023-09-07T02:53:05;61.37;;;55.77;;
31808;SDS011;18379;48.208;-1.518;2023-09-07T02:58:06;62.87;;;56.60;;
31808;SDS011;18379;48.208;-1.518;2023-09-07T03:03:06;62.30;;;56.60;;
31808;SDS011;18379;48.208;-1.518;2023-09-07T03:08:07;62.53;;;56.27;;
31808;SDS011;18379;48.208;-1.518;2023-09-07T03:13:08;62.17;;;56.57;;
31808;SDS011;18379;48.208;-1.518;2023-09-07T03:18:09;61.30;;;55.67;;
31808;SDS011;18379;48.208;-1.518;2023-09-07T03:23:09;62.30;;;56.53;;
31808;SDS011;18379;48.208;-1.518;2023-09-07T03:28:10;61.97;;;56.30;;
31808;SDS011;18379;48.208;-1.518;2023-09-07T03:33:11;62.23;;;56.60;;
31808;SDS011;18379;48.208;-1.518;2023-09-07T03:38:11;61.90;;;56.33;;
31808;SDS011;18379;48.208;-1.518;2023-09-07T03:43:12;62.07;;;56.03;;
31808;SDS011;18379;48.208;-1.518;2023-09-07T03:48:13;61.30;;;55.67;;
31808;SDS011;18379;48.208;-1.518;2023-09-07T03:53:14;61.20;;;55.73;;
31808;SDS011;18379;48.208;-1.518;2023-09-07T03:58:14;60.87;;;55.33;;
31808;SDS011;18379;48.208;-1.518;2023-09-07T04:03:15;61.27;;;55.57;;
31808;SDS011;18379;48.208;-1.518;2023-09-07T04:08:16;61.80;;;55.73;;
31808;SDS011;18379;48.208;-1.518;2023-09-07T04:13:16;62.00;;;56.83;;
31808;SDS011;18379;48.208;-1.518;2023-09-07T04:18:17;61.40;;;55.97;;
31808;SDS011;18379;48.208;-1.518;2023-09-07T04:23:18;60.47;;;55.27;;
31808;SDS011;18379;48.208;-1.518;2023-09-07T04:28:18;61.53;;;56.30;;
31808;SDS011;18379;48.208;-1.518;2023-09-07T04:33:19;61.77;;;56.50;;
31808;SDS011;18379;48.208;-1.518;2023-09-07T04:38:20;61.77;;;56.33;;
31808;SDS011;18379;48.208;-1.518;2023-09-07T04:43:20;62.27;;;56.50;;
31808;SDS011;18379;48.208;-1.518;2023-09-07T04:48:21;61.80;;;56.47;;
31808;SDS011;18379;48.208;-1.518;2023-09-07T04:53:22;62.77;;;56.93;;
31808;SDS011;18379;48.208;-1.518;2023-09-07T04:58:37;62.07;;;56.13;;
31808;SDS011;18379;48.208;-1.518;2023-09-07T05:03:37;60.73;;;55.33;;
31808;SDS011;18379;48.208;-1.518;2023-09-07T05:08:40;63.17;;;57.47;;
31808;SDS011;18379;48.208;-1.518;2023-09-07T05:13:40;61.87;;;56.33;;
31808;SDS011;18379;48.208;-1.518;2023-09-07T05:18:41;62.00;;;56.30;;
31808;SDS011;18379;48.208;-1.518;2023-09-07T05:23:43;62.73;;;57.20;;
31808;SDS011;18379;48.208;-1.518;2023-09-07T05:28:44;60.80;;;55.20;;
31808;SDS011;18379;48.208;-1.518;2023-09-07T05:33:44;61.57;;;56.10;;
31808;SDS011;18379;48.208;-1.518;2023-09-07T05:38:45;61.17;;;56.07;;
31808;SDS011;18379;48.208;-1.518;2023-09-07T05:43:45;61.73;;;56.70;;
31808;SDS011;18379;48.208;-1.518;2023-09-07T05:48:46;61.83;;;56.57;;
31808;SDS011;18379;48.208;-1.518;2023-09-07T05:53:47;62.97;;;57.57;;
31808;SDS011;18379;48.208;-1.518;2023-09-07T05:58:48;62.97;;;57.43;;
31808;SDS011;18379;48.208;-1.518;2023-09-07T06:03:48;63.47;;;57.53;;
31808;SDS011;18379;48.208;-1.518;2023-09-07T06:08:49;61.93;;;56.70;;
31808;SDS011;18379;48.208;-1.518;2023-09-07T06:13:50;62.40;;;57.03;;
31808;SDS011;18379;48.208;-1.518;2023-09-07T06:18:50;61.97;;;56.50;;
31808;SDS011;18379;48.208;-1.518;2023-09-07T06:23:51;61.80;;;56.70;;
31808;SDS011;18379;48.208;-1.518;2023-09-07T06:28:52;62.00;;;56.57;;
31808;SDS011;18379;48.208;-1.518;2023-09-07T06:33:52;61.07;;;55.97;;
31808;SDS011;18379;48.208;-1.518;2023-09-07T06:38:54;61.23;;;55.83;;
31808;SDS011;18379;48.208;-1.518;2023-09-07T06:43:54;60.47;;;55.37;;
31808;SDS011;18379;48.208;-1.518;2023-09-07T06:48:55;61.30;;;56.43;;
31808;SDS011;18379;48.208;-1.518;2023-09-07T06:53:56;61.40;;;56.27;;
31808;SDS011;18379;48.208;-1.518;2023-09-07T06:58:57;60.95;;;56.20;;
31808;SDS011;18379;48.208;-1.518;2023-09-07T07:03:57;60.47;;;55.87;;
31808;SDS011;18379;48.208;-1.518;2023-09-07T07:08:58;60.67;;;55.73;;
31808;SDS011;18379;48.208;-1.518;2023-09-07T07:13:59;60.30;;;55.60;;
31808;SDS011;18379;48.208;-1.518;2023-09-07T07:18:59;60.90;;;55.92;;
31808;SDS011;18379;48.208;-1.518;2023-09-07T07:24:00;59.42;;;54.65;;
31808;SDS011;18379;48.208;-1.518;2023-09-07T07:29:02;61.60;;;56.60;;
31808;SDS011;18379;48.208;-1.518;2023-09-07T07:34:05;60.30;;;55.43;;
31808;SDS011;18379;48.208;-1.518;2023-09-07T07:39:06;60.10;;;55.47;;
31808;SDS011;18379;48.208;-1.518;2023-09-07T07:44:07;59.50;;;54.70;;
31808;SDS011;18379;48.208;-1.518;2023-09-07T07:49:09;59.83;;;55.30;;
31808;SDS011;18379;48.208;-1.518;2023-09-07T07:54:09;60.10;;;55.58;;
31808;SDS011;18379;48.208;-1.518;2023-09-07T07:59:10;60.47;;;55.75;;
31808;SDS011;18379;48.208;-1.518;2023-09-07T08:04:11;59.53;;;55.13;;
31808;SDS011;18379;48.208;-1.518;2023-09-07T08:09:11;60.22;;;55.50;;
31808;SDS011;18379;48.208;-1.518;2023-09-07T08:14:14;60.13;;;55.38;;
31808;SDS011;18379;48.208;-1.518;2023-09-07T08:19:14;60.30;;;55.72;;
31808;SDS011;18379;48.208;-1.518;2023-09-07T08:24:15;59.50;;;54.83;;
31808;SDS011;18379;48.208;-1.518;2023-09-07T08:29:16;58.97;;;54.47;;
31808;SDS011;18379;48.208;-1.518;2023-09-07T08:34:17;59.03;;;54.63;;
31808;SDS011;18379;48.208;-1.518;2023-09-07T08:39:20;60.03;;;55.22;;
31808;SDS011;18379;48.208;-1.518;2023-09-07T08:44:22;61.03;;;56.20;;
31808;SDS011;18379;48.208;-1.518;2023-09-07T08:49:25;59.45;;;55.17;;
31808;SDS011;18379;48.208;-1.518;2023-09-07T08:54:27;60.92;;;56.10;;
31808;SDS011;18379;48.208;-1.518;2023-09-07T08:59:29;60.42;;;55.83;;
31808;SDS011;18379;48.208;-1.518;2023-09-07T09:04:30;60.95;;;56.13;;
31808;SDS011;18379;48.208;-1.518;2023-09-07T09:09:31;60.20;;;55.65;;
31808;SDS011;18379;48.208;-1.518;2023-09-07T09:14:32;60.00;;;55.67;;
31808;SDS011;18379;48.208;-1.518;2023-09-07T09:19:33;59.97;;;55.53;;
31808;SDS011;18379;48.208;-1.518;2023-09-07T09:24:34;61.03;;;56.53;;
31808;SDS011;18379;48.208;-1.518;2023-09-07T09:29:35;61.17;;;56.60;;
31808;SDS011;18379;48.208;-1.518;2023-09-07T09:34:36;59.85;;;55.33;;
31808;SDS011;18379;48.208;-1.518;2023-09-07T09:39:37;60.63;;;56.00;;
31808;SDS011;18379;48.208;-1.518;2023-09-07T09:44:39;61.15;;;56.55;;
31808;SDS011;18379;48.208;-1.518;2023-09-07T09:49:40;60.65;;;56.15;;
31808;SDS011;18379;48.208;-1.518;2023-09-07T09:54:41;60.75;;;56.25;;
31808;SDS011;18379;48.208;-1.518;2023-09-07T09:59:43;61.33;;;56.83;;
31808;SDS011;18379;48.208;-1.518;2023-09-07T10:04:44;60.63;;;56.13;;
31808;SDS011;18379;48.208;-1.518;2023-09-07T10:09:46;61.58;;;56.70;;
31808;SDS011;18379;48.208;-1.518;2023-09-07T10:14:46;60.63;;;56.10;;
31808;SDS011;18379;48.208;-1.518;2023-09-07T10:20:01;62.58;;;57.45;;
31808;SDS011;18379;48.208;-1.518;2023-09-07T10:25:05;62.33;;;57.60;;
31808;SDS011;18379;48.208;-1.518;2023-09-07T10:30:12;62.65;;;57.40;;
31808;SDS011;18379;48.208;-1.518;2023-09-07T10:35:14;61.92;;;57.10;;
31808;SDS011;18379;48.208;-1.518;2023-09-07T10:40:19;62.13;;;57.10;;
31808;SDS011;18379;48.208;-1.518;2023-09-07T10:45:21;63.00;;;58.08;;
31808;SDS011;18379;48.208;-1.518;2023-09-07T10:50:21;62.25;;;57.35;;
31808;SDS011;18379;48.208;-1.518;2023-09-07T10:55:22;63.15;;;58.40;;
31808;SDS011;18379;48.208;-1.518;2023-09-07T11:00:23;62.03;;;56.85;;
31808;SDS011;18379;48.208;-1.518;2023-09-07T11:05:24;62.67;;;57.28;;
31808;SDS011;18379;48.208;-1.518;2023-09-07T11:10:24;63.08;;;57.90;;
31808;SDS011;18379;48.208;-1.518;2023-09-07T11:15:25;62.08;;;57.28;;
31808;SDS011;18379;48.208;-1.518;2023-09-07T11:20:26;62.03;;;57.13;;
31808;SDS011;18379;48.208;-1.518;2023-09-07T11:25:33;64.00;;;58.40;;
31808;SDS011;18379;48.208;-1.518;2023-09-07T11:30:48;62.90;;;57.65;;
31808;SDS011;18379;48.208;-1.518;2023-09-07T11:35:53;62.08;;;57.17;;
31808;SDS011;18379;48.208;-1.518;2023-09-07T11:40:54;61.17;;;56.70;;
31808;SDS011;18379;48.208;-1.518;2023-09-07T11:45:56;61.97;;;57.15;;
31808;SDS011;18379;48.208;-1.518;2023-09-07T11:50:57;62.33;;;57.42;;
31808;SDS011;18379;48.208;-1.518;2023-09-07T11:55:58;63.00;;;57.90;;
31808;SDS011;18379;48.208;-1.518;2023-09-07T12:00:59;62.42;;;57.47;;
31808;SDS011;18379;48.208;-1.518;2023-09-07T12:06:00;61.17;;;56.67;;
31808;SDS011;18379;48.208;-1.518;2023-09-07T12:11:01;63.33;;;58.20;;
31808;SDS011;18379;48.208;-1.518;2023-09-07T12:16:02;63.47;;;58.38;;
31808;SDS011;18379;48.208;-1.518;2023-09-07T12:21:02;64.15;;;58.75;;
31808;SDS011;18379;48.208;-1.518;2023-09-07T12:26:03;62.80;;;57.85;;
31808;SDS011;18379;48.208;-1.518;2023-09-07T12:31:08;62.38;;;57.42;;
31808;SDS011;18379;48.208;-1.518;2023-09-07T12:36:10;64.53;;;58.58;;
31808;SDS011;18379;48.208;-1.518;2023-09-07T12:41:19;63.58;;;58.28;;
31808;SDS011;18379;48.208;-1.518;2023-09-07T12:46:21;63.90;;;58.38;;
31808;SDS011;18379;48.208;-1.518;2023-09-07T12:51:21;63.88;;;58.08;;
31808;SDS011;18379;48.208;-1.518;2023-09-07T12:56:22;63.88;;;58.65;;
31808;SDS011;18379;48.208;-1.518;2023-09-07T13:01:23;64.13;;;58.38;;
31808;SDS011;18379;48.208;-1.518;2023-09-07T13:06:23;64.00;;;59.00;;
31808;SDS011;18379;48.208;-1.518;2023-09-07T13:11:24;64.10;;;58.38;;
31808;SDS011;18379;48.208;-1.518;2023-09-07T13:16:25;64.00;;;58.10;;
31808;SDS011;18379;48.208;-1.518;2023-09-07T13:21:26;64.10;;;58.40;;
31808;SDS011;18379;48.208;-1.518;2023-09-07T13:26:26;64.05;;;58.80;;
31808;SDS011;18379;48.208;-1.518;2023-09-07T13:31:27;64.32;;;58.50;;
31808;SDS011;18379;48.208;-1.518;2023-09-07T13:36:27;63.45;;;58.20;;
31808;SDS011;18379;48.208;-1.518;2023-09-07T13:41:28;64.03;;;58.38;;
31808;SDS011;18379;48.208;-1.518;2023-09-07T13:46:29;64.65;;;59.08;;
31808;SDS011;18379;48.208;-1.518;2023-09-07T13:51:29;63.95;;;57.72;;
31808;SDS011;18379;48.208;-1.518;2023-09-07T13:56:35;66.22;;;59.33;;
31808;SDS011;18379;48.208;-1.518;2023-09-07T14:01:36;63.58;;;58.05;;
31808;SDS011;18379;48.208;-1.518;2023-09-07T14:06:38;62.85;;;57.05;;
31808;SDS011;18379;48.208;-1.518;2023-09-07T14:11:38;64.45;;;58.35;;
31808;SDS011;18379;48.208;-1.518;2023-09-07T14:16:39;63.80;;;58.17;;
31808;SDS011;18379;48.208;-1.518;2023-09-07T14:21:40;63.67;;;58.28;;
31808;SDS011;18379;48.208;-1.518;2023-09-07T14:26:40;62.08;;;56.83;;
31808;SDS011;18379;48.208;-1.518;2023-09-07T14:31:41;61.85;;;56.88;;
31808;SDS011;18379;48.208;-1.518;2023-09-07T14:36:43;63.53;;;58.15;;
31808;SDS011;18379;48.208;-1.518;2023-09-07T14:41:44;64.68;;;58.83;;
31808;SDS011;18379;48.208;-1.518;2023-09-07T14:46:44;63.30;;;57.97;;
31808;SDS011;18379;48.208;-1.518;2023-09-07T14:51:47;63.80;;;58.28;;
31808;SDS011;18379;48.208;-1.518;2023-09-07T14:56:47;64.15;;;58.50;;
31808;SDS011;18379;48.208;-1.518;2023-09-07T15:01:48;63.83;;;58.03;;
31808;SDS011;18379;48.208;-1.518;2023-09-07T15:06:49;64.03;;;58.35;;
31808;SDS011;18379;48.208;-1.518;2023-09-07T15:11:50;63.10;;;57.35;;
31808;SDS011;18379;48.208;-1.518;2023-09-07T15:16:53;62.88;;;57.85;;
31808;SDS011;18379;48.208;-1.518;2023-09-07T15:21:53;63.65;;;58.20;;
31808;SDS011;18379;48.208;-1.518;2023-09-07T15:26:54;63.20;;;57.83;;
31808;SDS011;18379;48.208;-1.518;2023-09-07T15:31:55;63.53;;;58.08;;
31808;SDS011;18379;48.208;-1.518;2023-09-07T15:36:55;63.05;;;57.33;;
31808;SDS011;18379;48.208;-1.518;2023-09-07T15:41:56;63.20;;;57.92;;
31808;SDS011;18379;48.208;-1.518;2023-09-07T15:46:57;63.00;;;57.65;;
31808;SDS011;18379;48.208;-1.518;2023-09-07T15:51:57;62.22;;;57.20;;
31808;SDS011;18379;48.208;-1.518;2023-09-07T15:56:58;63.28;;;57.78;;
31808;SDS011;18379;48.208;-1.518;2023-09-07T16:01:59;65.03;;;58.95;;
31808;SDS011;18379;48.208;-1.518;2023-09-07T16:07:00;63.13;;;57.45;;
31808;SDS011;18379;48.208;-1.518;2023-09-07T16:12:01;61.60;;;56.55;;
31808;SDS011;18379;48.208;-1.518;2023-09-07T16:17:02;62.63;;;57.10;;
31808;SDS011;18379;48.208;-1.518;2023-09-07T16:22:02;62.13;;;56.45;;
31808;SDS011;18379;48.208;-1.518;2023-09-07T16:27:08;63.03;;;57.40;;
31808;SDS011;18379;48.208;-1.518;2023-09-07T16:32:09;63.03;;;57.42;;
31808;SDS011;18379;48.208;-1.518;2023-09-07T16:37:10;63.50;;;57.65;;
31808;SDS011;18379;48.208;-1.518;2023-09-07T16:42:11;62.42;;;56.78;;
31808;SDS011;18379;48.208;-1.518;2023-09-07T16:47:12;63.67;;;58.22;;
31808;SDS011;18379;48.208;-1.518;2023-09-07T16:52:13;63.53;;;58.13;;
31808;SDS011;18379;48.208;-1.518;2023-09-07T16:57:14;63.88;;;58.15;;
31808;SDS011;18379;48.208;-1.518;2023-09-07T17:02:15;62.70;;;57.50;;
31808;SDS011;18379;48.208;-1.518;2023-09-07T17:07:16;62.63;;;57.13;;
31808;SDS011;18379;48.208;-1.518;2023-09-07T17:12:16;62.33;;;57.30;;
31808;SDS011;18379;48.208;-1.518;2023-09-07T17:17:17;63.30;;;57.65;;
31808;SDS011;18379;48.208;-1.518;2023-09-07T17:22:18;63.03;;;57.15;;
31808;SDS011;18379;48.208;-1.518;2023-09-07T17:27:18;62.10;;;56.65;;
31808;SDS011;18379;48.208;-1.518;2023-09-07T17:32:19;63.28;;;57.70;;
31808;SDS011;18379;48.208;-1.518;2023-09-07T17:37:20;62.72;;;56.80;;
31808;SDS011;18379;48.208;-1.518;2023-09-07T17:42:21;62.60;;;57.03;;
31808;SDS011;18379;48.208;-1.518;2023-09-07T17:47:22;62.75;;;57.08;;
31808;SDS011;18379;48.208;-1.518;2023-09-07T17:52:23;62.10;;;57.13;;
31808;SDS011;18379;48.208;-1.518;2023-09-07T17:57:24;62.58;;;56.88;;
31808;SDS011;18379;48.208;-1.518;2023-09-07T18:02:25;62.15;;;56.95;;
31808;SDS011;18379;48.208;-1.518;2023-09-07T18:07:29;61.88;;;56.67;;
31808;SDS011;18379;48.208;-1.518;2023-09-07T18:12:30;62.60;;;57.05;;
31808;SDS011;18379;48.208;-1.518;2023-09-07T18:17:31;64.10;;;58.17;;
31808;SDS011;18379;48.208;-1.518;2023-09-07T18:22:32;61.83;;;56.78;;
31808;SDS011;18379;48.208;-1.518;2023-09-07T18:27:33;62.03;;;56.88;;
31808;SDS011;18379;48.208;-1.518;2023-09-07T18:32:34;63.28;;;57.80;;
31808;SDS011;18379;48.208;-1.518;2023-09-07T18:37:35;64.07;;;58.30;;
31808;SDS011;18379;48.208;-1.518;2023-09-07T18:42:38;64.05;;;58.20;;
31808;SDS011;18379;48.208;-1.518;2023-09-07T18:47:39;64.47;;;59.03;;
31808;SDS011;18379;48.208;-1.518;2023-09-07T18:52:41;63.28;;;58.03;;
31808;SDS011;18379;48.208;-1.518;2023-09-07T18:57:42;63.28;;;57.55;;
31808;SDS011;18379;48.208;-1.518;2023-09-07T19:02:46;63.67;;;58.08;;
31808;SDS011;18379;48.208;-1.518;2023-09-07T19:07:48;61.55;;;56.40;;
31808;SDS011;18379;48.208;-1.518;2023-09-07T19:12:49;62.13;;;56.63;;
31808;SDS011;18379;48.208;-1.518;2023-09-07T19:17:51;61.83;;;56.67;;
31808;SDS011;18379;48.208;-1.518;2023-09-07T19:22:52;61.83;;;56.58;;
31808;SDS011;18379;48.208;-1.518;2023-09-07T19:27:53;62.30;;;56.90;;
31808;SDS011;18379;48.208;-1.518;2023-09-07T19:32:53;61.28;;;56.45;;
31808;SDS011;18379;48.208;-1.518;2023-09-07T19:37:54;61.65;;;56.75;;
31808;SDS011;18379;48.208;-1.518;2023-09-07T19:42:55;62.30;;;57.10;;
31808;SDS011;18379;48.208;-1.518;2023-09-07T19:47:55;62.70;;;57.38;;
31808;SDS011;18379;48.208;-1.518;2023-09-07T19:52:56;63.28;;;57.92;;
31808;SDS011;18379;48.208;-1.518;2023-09-07T19:57:57;62.83;;;57.65;;
31808;SDS011;18379;48.208;-1.518;2023-09-07T20:02:57;62.10;;;57.05;;
31808;SDS011;18379;48.208;-1.518;2023-09-07T20:07:58;63.58;;;58.17;;
31808;SDS011;18379;48.208;-1.518;2023-09-07T20:12:59;62.33;;;56.83;;
31808;SDS011;18379;48.208;-1.518;2023-09-07T20:17:59;61.45;;;56.42;;
31808;SDS011;18379;48.208;-1.518;2023-09-07T20:23:00;61.78;;;56.78;;
31808;SDS011;18379;48.208;-1.518;2023-09-07T20:28:01;62.25;;;57.00;;
31808;SDS011;18379;48.208;-1.518;2023-09-07T20:33:02;62.35;;;57.40;;
31808;SDS011;18379;48.208;-1.518;2023-09-07T20:38:03;63.10;;;57.85;;
31808;SDS011;18379;48.208;-1.518;2023-09-07T20:43:04;62.00;;;56.90;;
31808;SDS011;18379;48.208;-1.518;2023-09-07T20:48:07;61.45;;;56.45;;
31808;SDS011;18379;48.208;-1.518;2023-09-07T20:53:08;62.13;;;56.95;;
31808;SDS011;18379;48.208;-1.518;2023-09-07T20:58:09;63.28;;;57.75;;
31808;SDS011;18379;48.208;-1.518;2023-09-07T21:03:11;61.42;;;56.55;;
31808;SDS011;18379;48.208;-1.518;2023-09-07T21:08:11;61.15;;;56.35;;
31808;SDS011;18379;48.208;-1.518;2023-09-07T21:13:12;61.22;;;56.40;;
31808;SDS011;18379;48.208;-1.518;2023-09-07T21:18:13;62.50;;;57.58;;
31808;SDS011;18379;48.208;-1.518;2023-09-07T21:23:14;62.10;;;56.95;;
31808;SDS011;18379;48.208;-1.518;2023-09-07T21:28:15;61.67;;;56.60;;
31808;SDS011;18379;48.208;-1.518;2023-09-07T21:33:16;62.13;;;57.05;;
31808;SDS011;18379;48.208;-1.518;2023-09-07T21:38:16;61.63;;;56.85;;
31808;SDS011;18379;48.208;-1.518;2023-09-07T21:43:17;62.80;;;57.92;;
31808;SDS011;18379;48.208;-1.518;2023-09-07T21:48:18;61.42;;;56.65;;
31808;SDS011;18379;48.208;-1.518;2023-09-07T21:53:18;61.88;;;56.80;;
31808;SDS011;18379;48.208;-1.518;2023-09-07T21:58:19;61.65;;;56.33;;
31808;SDS011;18379;48.208;-1.518;2023-09-07T22:03:20;61.90;;;56.83;;
31808;SDS011;18379;48.208;-1.518;2023-09-07T22:08:20;61.17;;;55.95;;
31808;SDS011;18379;48.208;-1.518;2023-09-07T22:13:21;61.78;;;56.88;;
31808;SDS011;18379;48.208;-1.518;2023-09-07T22:18:22;61.67;;;56.38;;
31808;SDS011;18379;48.208;-1.518;2023-09-07T22:23:23;61.22;;;56.53;;
31808;SDS011;18379;48.208;-1.518;2023-09-07T22:28:24;61.30;;;56.45;;
31808;SDS011;18379;48.208;-1.518;2023-09-07T22:33:24;61.40;;;56.17;;
31808;SDS011;18379;48.208;-1.518;2023-09-07T22:38:26;60.47;;;55.53;;
31808;SDS011;18379;48.208;-1.518;2023-09-07T22:43:27;60.70;;;55.58;;
31808;SDS011;18379;48.208;-1.518;2023-09-07T22:48:27;60.42;;;55.78;;
31808;SDS011;18379;48.208;-1.518;2023-09-07T22:53:28;60.30;;;55.55;;
31808;SDS011;18379;48.208;-1.518;2023-09-07T22:58:29;60.28;;;55.60;;
31808;SDS011;18379;48.208;-1.518;2023-09-07T23:03:29;59.67;;;55.33;;
31808;SDS011;18379;48.208;-1.518;2023-09-07T23:08:30;60.08;;;55.03;;
31808;SDS011;18379;48.208;-1.518;2023-09-07T23:13:31;60.25;;;55.75;;
31808;SDS011;18379;48.208;-1.518;2023-09-07T23:18:34;60.78;;;55.97;;
31808;SDS011;18379;48.208;-1.518;2023-09-07T23:23:35;60.55;;;55.83;;
31808;SDS011;18379;48.208;-1.518;2023-09-07T23:28:37;60.60;;;55.88;;
31808;SDS011;18379;48.208;-1.518;2023-09-07T23:33:38;60.65;;;55.83;;
31808;SDS011;18379;48.208;-1.518;2023-09-07T23:38:38;62.08;;;56.70;;
31808;SDS011;18379;48.208;-1.518;2023-09-07T23:43:42;60.05;;;55.83;;
31808;SDS011;18379;48.208;-1.518;2023-09-07T23:48:42;61.15;;;56.38;;
31808;SDS011;18379;48.208;-1.518;2023-09-07T23:53:43;60.47;;;55.38;;
31808;SDS011;18379;48.208;-1.518;2023-09-07T23:58:44;62.17;;;56.80;;
